^^
Station Historical Data
Daily Summary for December 2, 2019 Units:  English    Metric   Both
« Previous Day
Next Day »
Daily Weekly Monthly Yearly Custom
  High: Low: Average:
Temperature: 32.6 °F 13.9 °F 23.5 °F
Dew Point: 28.6 °F 11.5 °F 20.6 °F
Humidity: 92% 84% 89%
Wind Speed: 17mph 1mph 5.5mph
Wind Gust: 18mph - -
Wind- - SSW
Pressure: 30.27 in 29.92 in -
Precipitation: 0.01 in    
Historical Graphs
 
 
Tabular Data for December 2, 2019
Time Temperature Dew Point Pressure Wind Wind Speed Wind Gust Humidity Rainfall Rate (Hourly) solar Conditions
00:00 16.7 °F 14.5 °F 30.26 in SE 3 mph 8 mph 91% 0 in 0.00 W/m2
00:05 16.5 °F 14.3 °F 30.27 in SSE 5 mph 8 mph 91% 0 in 0.00 W/m2
00:10 16.4 °F 14.2 °F 30.27 in SE 4 mph 7 mph 91% 0 in 0.00 W/m2
00:15 16.3 °F 14.1 °F 30.27 in SE 5 mph 7 mph 91% 0 in 0.00 W/m2
00:20 16.3 °F 14.1 °F 30.26 in SE 3 mph 7 mph 91% 0 in 0.00 W/m2
00:25 16.3 °F 14.1 °F 30.27 in SE 4 mph 5 mph 91% 0 in 0.00 W/m2
00:30 16.3 °F 14.1 °F 30.26 in SE 2 mph 7 mph 91% 0 in 0.00 W/m2
00:35 16.3 °F 14.1 °F 30.26 in SE 2 mph 7 mph 91% 0 in 0.00 W/m2
00:40 16.1 °F 13.9 °F 30.26 in SE 5 mph 7 mph 91% 0 in 0.00 W/m2
00:45 16 °F 13.8 °F 30.26 in SE 4 mph 7 mph 91% 0 in 0.00 W/m2
00:50 15.8 °F 13.6 °F 30.26 in SE 3 mph 7 mph 91% 0 in 0.00 W/m2
00:55 15.6 °F 13.4 °F 30.26 in SE 4 mph 5 mph 91% 0 in 0.00 W/m2
01:00 15.5 °F 13.1 °F 30.26 in SE 4 mph 5 mph 90% 0 in 0.00 W/m2
01:05 15.3 °F 12.9 °F 30.26 in SE 4 mph 5 mph 90% 0 in 0.00 W/m2
01:10 15 °F 12.6 °F 30.26 in SE 4 mph 5 mph 90% 0 in 0.00 W/m2
01:15 14.8 °F 12.4 °F 30.26 in SE 4 mph 6 mph 90% 0 in 0.00 W/m2
01:20 14.6 °F 12.2 °F 30.26 in SE 4 mph 7 mph 90% 0 in 0.00 W/m2
01:25 14.5 °F 12.1 °F 30.25 in SE 3 mph 7 mph 90% 0 in 0.00 W/m2
01:30 14.5 °F 12.1 °F 30.25 in SE 4 mph 6 mph 90% 0 in 0.00 W/m2
01:35 14.5 °F 12.1 °F 30.24 in ESE 4 mph 6 mph 90% 0 in 0.00 W/m2
01:40 14.6 °F 12.2 °F 30.24 in SE 3 mph 4 mph 90% 0 in 0.00 W/m2
01:45 14.6 °F 12.2 °F 30.25 in SE 3 mph 4 mph 90% 0 in 0.00 W/m2
01:50 14.5 °F 12.1 °F 30.24 in ESE 3 mph 4 mph 90% 0 in 0.00 W/m2
01:55 14.5 °F 12.1 °F 30.24 in ESE 5 mph 6 mph 90% 0 in 0.00 W/m2
02:00 14.6 °F 12.2 °F 30.25 in SE 4 mph 6 mph 90% 0 in 0.00 W/m2
02:05 14.6 °F 12.2 °F 30.24 in ESE 4 mph 6 mph 90% 0 in 0.00 W/m2
02:10 14.5 °F 12.1 °F 30.24 in ESE 4 mph 6 mph 90% 0 in 0.00 W/m2
02:15 14.6 °F 12.2 °F 30.23 in SE 3 mph 7 mph 90% 0 in 0.00 W/m2
02:20 14.6 °F 12.2 °F 30.23 in ESE 4 mph 7 mph 90% 0 in 0.00 W/m2
02:25 14.6 °F 12.2 °F 30.23 in ESE 4 mph 6 mph 90% 0 in 0.00 W/m2
02:30 14.7 °F 12.3 °F 30.23 in ESE 4 mph 6 mph 90% 0 in 0.00 W/m2
02:35 14.8 °F 12.4 °F 30.22 in SE 5 mph 6 mph 90% 0 in 0.00 W/m2
02:40 14.8 °F 12.4 °F 30.22 in SE 4 mph 6 mph 90% 0 in 0.00 W/m2
02:45 14.7 °F 12.3 °F 30.22 in SE 5 mph 6 mph 90% 0 in 0.00 W/m2
02:50 14.7 °F 12.3 °F 30.22 in SE 5 mph 6 mph 90% 0 in 0.00 W/m2
02:55 14.7 °F 12.3 °F 30.22 in SE 4 mph 7 mph 90% 0 in 0.00 W/m2
03:00 14.7 °F 12.3 °F 30.22 in ESE 4 mph 7 mph 90% 0 in 0.00 W/m2
03:05 14.6 °F 12.2 °F 30.21 in ESE 4 mph 7 mph 90% 0 in 0.00 W/m2
03:10 14.5 °F 12.1 °F 30.21 in East 3 mph 7 mph 90% 0 in 0.00 W/m2
03:15 14.4 °F 12 °F 30.21 in East 3 mph 6 mph 90% 0 in 0.00 W/m2
03:20 14.3 °F 11.9 °F 30.21 in East 3 mph 6 mph 90% 0 in 0.00 W/m2
03:25 14.1 °F 11.7 °F 30.21 in ESE 3 mph 6 mph 90% 0 in 0.00 W/m2
03:30 14 °F 11.6 °F 30.21 in ESE 3 mph 6 mph 90% 0 in 0.00 W/m2
03:35 14 °F 11.6 °F 30.21 in ESE 3 mph 6 mph 90% 0 in 0.00 W/m2
03:40 13.9 °F 11.5 °F 30.21 in ESE 3 mph 4 mph 90% 0 in 0.00 W/m2
03:45 14.2 °F 12.1 °F 30.21 in ESE 4 mph 4 mph 91% 0 in 0.00 W/m2
03:50 14.4 °F 12 °F 30.20 in ESE 4 mph 6 mph 90% 0 in 0.00 W/m2
03:55 14.4 °F 12.3 °F 30.21 in ESE 4 mph 6 mph 91% 0 in 0.00 W/m2
04:00 14.6 °F 12.2 °F 30.20 in SE 4 mph 4 mph 90% 0 in 0.00 W/m2
04:05 14.7 °F 12.6 °F 30.20 in ESE 4 mph 6 mph 91% 0 in 0.00 W/m2
04:10 14.8 °F 12.4 °F 30.20 in SE 3 mph 6 mph 90% 0 in 0.00 W/m2
04:15 14.8 °F 12.4 °F 30.19 in East 4 mph 4 mph 90% 0 in 0.00 W/m2
04:20 14.8 °F 12.4 °F 30.18 in East 3 mph 4 mph 90% 0 in 0.00 W/m2
04:25 14.8 °F 12.6 °F 30.18 in ESE 4 mph 6 mph 91% 0 in 0.00 W/m2
04:30 15 °F 12.8 °F 30.18 in ESE 3 mph 6 mph 91% 0 in 0.00 W/m2
04:35 15 °F 12.8 °F 30.17 in ESE 3 mph 6 mph 91% 0 in 0.00 W/m2
04:40 15.1 °F 12.9 °F 30.17 in ESE 4 mph 6 mph 91% 0 in 0.00 W/m2
04:45 15 °F 12.8 °F 30.16 in ESE 3 mph 6 mph 91% 0 in 0.00 W/m2
04:50 15.1 °F 12.9 °F 30.16 in ESE 3 mph 6 mph 91% 0 in 0.00 W/m2
04:55 15.1 °F 12.9 °F 30.17 in East 3 mph 6 mph 91% 0 in 0.00 W/m2
05:00 15.2 °F 13 °F 30.16 in East 3 mph 6 mph 91% 0 in 0.00 W/m2
05:05 15.2 °F 13 °F 30.17 in ESE 2 mph 6 mph 91% 0 in 0.00 W/m2
05:10 15.3 °F 13.1 °F 30.16 in ESE 3 mph 4 mph 91% 0 in 0.00 W/m2
05:15 15.3 °F 12.9 °F 30.16 in ESE 3 mph 4 mph 90% 0 in 0.00 W/m2
05:20 15.3 °F 12.9 °F 30.16 in ESE 3 mph 4 mph 90% 0 in 0.00 W/m2
05:25 15.3 °F 12.9 °F 30.15 in ESE 3 mph 4 mph 90% 0 in 0.00 W/m2
05:30 15.3 °F 13.1 °F 30.15 in ESE 3 mph 4 mph 91% 0 in 0.00 W/m2
05:35 15.3 °F 12.9 °F 30.15 in East 3 mph 4 mph 90% 0 in 0.00 W/m2
05:40 15.3 °F 12.9 °F 30.15 in East 3 mph 4 mph 90% 0 in 0.00 W/m2
05:45 15.3 °F 12.9 °F 30.15 in East 3 mph 4 mph 90% 0 in 0.00 W/m2
05:50 15.2 °F 12.8 °F 30.15 in ENE 2 mph 4 mph 90% 0 in 0.00 W/m2
05:55 15.3 °F 13.1 °F 30.14 in East 4 mph 5 mph 91% 0 in 0.00 W/m2
06:00 15.4 °F 13.2 °F 30.15 in ESE 3 mph 5 mph 91% 0 in 0.00 W/m2
06:05 15.5 °F 13.3 °F 30.15 in East 3 mph 5 mph 91% 0 in 0.00 W/m2
06:10 15.6 °F 13.4 °F 30.15 in ESE 2 mph 5 mph 91% 0 in 0.00 W/m2
06:15 15.8 °F 13.6 °F 30.15 in ESE 3 mph 5 mph 91% 0 in 0.00 W/m2
06:20 16 °F 13.8 °F 30.14 in SE 5 mph 5 mph 91% 0 in 0.00 W/m2
06:25 16.2 °F 14 °F 30.14 in SE 3 mph 5 mph 91% 0 in 0.00 W/m2
06:30 16.2 °F 14 °F 30.14 in SE 3 mph 5 mph 91% 0 in 0.00 W/m2
06:35 16 °F 13.8 °F 30.15 in SSE 2 mph 4 mph 91% 0 in 0.00 W/m2
06:40 16.2 °F 14 °F 30.16 in SSE 1 mph 5 mph 91% 0 in 0.00 W/m2
06:45 16.2 °F 14 °F 30.16 in SE 2 mph 5 mph 91% 0 in 0.00 W/m2
06:50 16.3 °F 14.1 °F 30.16 in SSE 4 mph 5 mph 91% 0 in 0.00 W/m2
06:55 16.4 °F 14.2 °F 30.16 in SSE 1 mph 5 mph 91% 0 in 0.00 W/m2
07:00 16.4 °F 14.2 °F 30.15 in SE 3 mph 5 mph 91% 0 in 0.00 W/m2
07:05 16.5 °F 14.3 °F 30.14 in SSE 5 mph 5 mph 91% 0 in 0.00 W/m2
07:10 16.9 °F 15 °F 30.14 in SE 3 mph 5 mph 92% 0 in 0.00 W/m2
07:15 17.1 °F 14.9 °F 30.14 in SE 4 mph 5 mph 91% 0 in 0.00 W/m2
07:20 17.2 °F 15 °F 30.14 in SE 4 mph 5 mph 91% 0 in 0.00 W/m2
07:25 17.3 °F 15.1 °F 30.14 in SE 3 mph 6 mph 91% 0 in 0.00 W/m2
07:30 17.4 °F 15.2 °F 30.14 in SE 2 mph 6 mph 91% 0 in 0.00 W/m2
07:35 17.3 °F 15.1 °F 30.14 in SE 3 mph 6 mph 91% 0 in 0.00 W/m2
07:40 17.2 °F 15 °F 30.13 in ESE 3 mph 6 mph 91% 0 in 0.00 W/m2
07:45 17.1 °F 14.9 °F 30.13 in SE 4 mph 6 mph 91% 0 in 0.00 W/m2
07:50 17.2 °F 15 °F 30.13 in ESE 2 mph 6 mph 91% 0 in 0.00 W/m2
07:55 17.4 °F 15.2 °F 30.13 in ESE 3 mph 5 mph 91% 0 in 0.00 W/m2
08:00 17.6 °F 15.4 °F 30.13 in ESE 3 mph 5 mph 91% 0 in 0.00 W/m2
08:05 17.6 °F 15.4 °F 30.12 in ESE 3 mph 6 mph 91% 0 in 0.00 W/m2
08:10 17.5 °F 15.3 °F 30.12 in ESE 2 mph 6 mph 91% 0 in 0.00 W/m2
08:15 17.5 °F 15.3 °F 30.13 in ESE 2 mph 6 mph 91% 0 in 0.00 W/m2
08:20 17.5 °F 15.3 °F 30.12 in ESE 3 mph 6 mph 91% 0 in 5.00 W/m2
08:25 17.5 °F 15.3 °F 30.12 in SE 5 mph 6 mph 91% 0 in 7.00 W/m2
08:30 17.5 °F 15.3 °F 30.12 in SSE 4 mph 7 mph 91% 0 in 11.00 W/m2
08:35 17.7 °F 15.5 °F 30.12 in SSE 3 mph 7 mph 91% 0 in 12.00 W/m2
08:40 17.8 °F 15.6 °F 30.12 in SSE 2 mph 5 mph 91% 0 in 16.00 W/m2
08:45 18.1 °F 15.9 °F 30.12 in SSE 5 mph 5 mph 91% 0 in 18.00 W/m2
08:50 18.3 °F 16.1 °F 30.12 in South 3 mph 5 mph 91% 0 in 21.00 W/m2
08:55 18.6 °F 16.4 °F 30.11 in SSE 4 mph 5 mph 91% 0 in 25.00 W/m2
09:00 18.6 °F 16.4 °F 30.10 in SSE 2 mph 8 mph 91% 0 in 28.00 W/m2
09:05 18.9 °F 16.7 °F 30.11 in SSE 2 mph 8 mph 91% 0 in 30.00 W/m2
09:10 19.1 °F 17.2 °F 30.11 in SSE 4 mph 6 mph 92% 0 in 32.00 W/m2
09:15 19.3 °F 17.1 °F 30.11 in South 5 mph 7 mph 91% 0 in 37.00 W/m2
09:20 19.5 °F 17.3 °F 30.10 in South 4 mph 7 mph 91% 0 in 40.00 W/m2
09:25 19.6 °F 17.4 °F 30.10 in SSE 4 mph 8 mph 91% 0 in 46.00 W/m2
09:30 19.7 °F 17.5 °F 30.10 in SSE 2 mph 8 mph 91% 0 in 49.00 W/m2
09:35 19.8 °F 17.6 °F 30.09 in SSE 2 mph 6 mph 91% 0 in 53.00 W/m2
09:40 19.9 °F 17.7 °F 30.10 in SE 3 mph 6 mph 91% 0 in 56.00 W/m2
09:45 19.8 °F 17.6 °F 30.09 in SSE 3 mph 5 mph 91% 0 in 54.00 W/m2
09:50 19.7 °F 17.5 °F 30.09 in SSE 3 mph 5 mph 91% 0 in 67.00 W/m2
09:55 19.8 °F 17.6 °F 30.09 in SSE 4 mph 5 mph 91% 0 in 74.00 W/m2
10:00 19.9 °F 18 °F 30.10 in SSE 4 mph 6 mph 92% 0 in 63.00 W/m2
10:05 20.2 °F 18.2 °F 30.09 in South 2 mph 7 mph 92% 0 in 62.00 W/m2
10:10 20.5 °F 18.5 °F 30.09 in South 5 mph 9 mph 92% 0 in 63.00 W/m2
10:15 20.8 °F 18.8 °F 30.09 in South 7 mph 9 mph 92% 0 in 63.00 W/m2
10:20 21 °F 19 °F 30.09 in South 7 mph 8 mph 92% 0 in 74.00 W/m2
10:25 21.1 °F 19.1 °F 30.09 in South 5 mph 8 mph 92% 0 in 76.00 W/m2
10:30 21.1 °F 19.1 °F 30.09 in South 5 mph 8 mph 92% 0 in 77.00 W/m2
10:35 21.3 °F 19.3 °F 30.08 in South 4 mph 7 mph 92% 0 in 76.00 W/m2
10:40 21.4 °F 19.4 °F 30.09 in SSE 2 mph 7 mph 92% 0 in 77.00 W/m2
10:45 21.6 °F 19.6 °F 30.08 in SSE 2 mph 7 mph 92% 0 in 79.00 W/m2
10:50 21.6 °F 19.6 °F 30.08 in South 6 mph 7 mph 92% 0 in 81.00 W/m2
10:55 21.8 °F 19.8 °F 30.08 in South 8 mph 8 mph 92% 0 in 90.00 W/m2
11:00 21.9 °F 19.9 °F 30.08 in SSW 3 mph 9 mph 92% 0 in 98.00 W/m2
11:05 22 °F 19.8 °F 30.09 in SW 4 mph 9 mph 91% 0 in 104.00 W/m2
11:10 22.1 °F 20.1 °F 30.09 in SW 4 mph 9 mph 92% 0 in 100.00 W/m2
11:15 22.1 °F 19.9 °F 30.08 in SSW 5 mph 9 mph 91% 0 in 100.00 W/m2
11:20 22 °F 20 °F 30.08 in SSW 4 mph 8 mph 92% 0 in 102.00 W/m2
11:25 22.3 °F 20.3 °F 30.08 in SW 4 mph 8 mph 92% 0 in 104.00 W/m2
11:30 22.5 °F 20.5 °F 30.07 in SSW 4 mph 8 mph 92% 0 in 109.00 W/m2
11:35 22.7 °F 20.7 °F 30.07 in SSW 3 mph 6 mph 92% 0 in 113.00 W/m2
11:40 22.9 °F 20.9 °F 30.07 in SW 4 mph 6 mph 92% 0 in 104.00 W/m2
11:45 23.2 °F 21.2 °F 30.07 in SW 5 mph 6 mph 92% 0 in 104.00 W/m2
11:50 23.3 °F 21.1 °F 30.06 in SSW 3 mph 6 mph 91% 0 in 100.00 W/m2
11:55 23.5 °F 21.3 °F 30.07 in SSW 4 mph 6 mph 91% 0 in 97.00 W/m2
12:00 23.6 °F 21.4 °F 30.06 in SW 3 mph 6 mph 91% 0 in 93.00 W/m2
12:05 23.7 °F 21.7 °F 30.06 in South 3 mph 6 mph 92% 0 in 91.00 W/m2
12:10 24 °F 22 °F 30.06 in SSW 1 mph 6 mph 92% 0 in 98.00 W/m2
12:15 24.2 °F 22.2 °F 30.05 in South 1 mph 5 mph 92% 0 in 102.00 W/m2
12:20 24.5 °F 22.5 °F 30.05 in South 4 mph 5 mph 92% 0 in 111.00 W/m2
12:25 24.8 °F 22.8 °F 30.05 in SSW 4 mph 5 mph 92% 0 in 114.00 W/m2
12:30 24.9 °F 22.6 °F 30.04 in South 4 mph 6 mph 91% 0 in 113.00 W/m2
12:35 25.2 °F 22.9 °F 30.04 in SSW 3 mph 6 mph 91% 0 in 120.00 W/m2
12:40 25.4 °F 23.1 °F 30.04 in South 2 mph 6 mph 91% 0 in 116.00 W/m2
12:45 25.7 °F 23.2 °F 30.04 in SW 2 mph 6 mph 90% 0 in 118.00 W/m2
12:50 25.8 °F 23.3 °F 30.04 in SW 3 mph 6 mph 90% 0 in 113.00 W/m2
12:55 26.2 °F 23.1 °F 30.04 in SW 4 mph 5 mph 88% 0 in 111.00 W/m2
13:00 26.3 °F 23.2 °F 30.03 in SW 3 mph 6 mph 88% 0 in 107.00 W/m2
13:05 26.3 °F 23.2 °F 30.03 in SW 4 mph 6 mph 88% 0 in 104.00 W/m2
13:10 26.5 °F 23.4 °F 30.03 in SW 4 mph 6 mph 88% 0 in 102.00 W/m2
13:15 26.7 °F 23.9 °F 30.02 in SW 3 mph 6 mph 89% 0 in 107.00 W/m2
13:20 26.9 °F 24.1 °F 30.02 in SW 2 mph 5 mph 89% 0 in 105.00 W/m2
13:25 27.1 °F 24 °F 30.02 in SW 5 mph 6 mph 88% 0 in 104.00 W/m2
13:30 27.4 °F 24 °F 30.03 in WSW 5 mph 6 mph 87% 0 in 107.00 W/m2
13:35 27.5 °F 24.1 °F 30.02 in WSW 4 mph 8 mph 87% 0 in 111.00 W/m2
13:40 27.6 °F 24.2 °F 30.02 in SW 4 mph 8 mph 87% 0 in 105.00 W/m2
13:45 27.7 °F 24.1 °F 30.01 in SW 5 mph 8 mph 86% 0 in 100.00 W/m2
13:50 27.8 °F 24.4 °F 30.01 in SW 4 mph 8 mph 87% 0 in 97.00 W/m2
13:55 27.9 °F 24.5 °F 30.00 in SW 6 mph 8 mph 87% 0 in 93.00 W/m2
14:00 28.1 °F 24.7 °F 30.00 in WSW 3 mph 8 mph 87% 0 in 100.00 W/m2
14:05 28.2 °F 24.8 °F 30.00 in SW 4 mph 8 mph 87% 0 in 84.00 W/m2
14:10 28.3 °F 24.9 °F 30.00 in SW 4 mph 8 mph 87% 0 in 77.00 W/m2
14:15 28.4 °F 25 °F 30.00 in WSW 4 mph 8 mph 87% 0 in 88.00 W/m2
14:20 28.5 °F 25.1 °F 30.00 in WSW 6 mph 8 mph 87% 0 in 104.00 W/m2
14:25 28.5 °F 25.1 °F 30.00 in WSW 4 mph 8 mph 87% 0 in 76.00 W/m2
14:30 28.7 °F 25.3 °F 30.00 in SW 6 mph 9 mph 87% 0 in 118.00 W/m2
14:35 28.9 °F 25.2 °F 30.00 in WSW 5 mph 9 mph 86% 0 in 53.00 W/m2
14:40 29 °F 25.3 °F 30.00 in WSW 4 mph 8 mph 86% 0 in 127.00 W/m2
14:45 29 °F 25.3 °F 30.00 in WSW 5 mph 8 mph 86% 0 in 113.00 W/m2
14:50 29.3 °F 25.6 °F 30.00 in WSW 5 mph 8 mph 86% 0 in 151.00 W/m2
14:55 29.7 °F 26 °F 29.99 in WSW 3 mph 8 mph 86% 0 in 163.00 W/m2
15:00 30.2 °F 26.5 °F 29.99 in WSW 5 mph 8 mph 86% 0 in 195.00 W/m2
15:05 30.6 °F 26.9 °F 29.99 in WSW 5 mph 8 mph 86% 0 in 207.00 W/m2
15:10 30.9 °F 27.2 °F 29.99 in WSW 4 mph 8 mph 86% 0 in 214.00 W/m2
15:15 31.2 °F 27.2 °F 29.99 in WSW 5 mph 8 mph 85% 0 in 221.00 W/m2
15:20 31.3 °F 27.3 °F 29.99 in WSW 7 mph 7 mph 85% 0 in 220.00 W/m2
15:25 31.5 °F 27.5 °F 29.99 in WSW 8 mph 9 mph 85% 0 in 193.00 W/m2
15:30 31.7 °F 27.7 °F 29.98 in SW 10 mph 11 mph 85% 0 in 174.00 W/m2
15:35 32 °F 27.7 °F 29.98 in WSW 10 mph 11 mph 84% 0 in 158.00 W/m2
15:40 32.2 °F 27.9 °F 29.99 in SW 10 mph 12 mph 84% 0 in 144.00 W/m2
15:45 32.4 °F 28.1 °F 29.98 in WSW 7 mph 12 mph 84% 0 in 127.00 W/m2
15:50 32.2 °F 27.9 °F 29.98 in WSW 7 mph 12 mph 84% 0 in 116.00 W/m2
15:55 32 °F 27.7 °F 29.98 in WSW 9 mph 11 mph 84% 0 in 105.00 W/m2
16:00 32 °F 28 °F 29.98 in WSW 8 mph 11 mph 85% 0 in 104.00 W/m2
16:05 32.1 °F 28.1 °F 29.98 in WSW 8 mph 11 mph 85% 0 in 91.00 W/m2
16:10 32 °F 28 °F 29.98 in WSW 9 mph 11 mph 85% 0.01 in 83.00 W/m2
16:15 31.6 °F 27.6 °F 29.98 in SW 10 mph 12 mph 85% 0.01 in 69.00 W/m2
16:20 31.4 °F 27.4 °F 29.98 in WSW 10 mph 12 mph 85% 0.01 in 54.00 W/m2
16:25 31.4 °F 27.4 °F 29.98 in WSW 9 mph 12 mph 85% 0.01 in 51.00 W/m2
16:30 31.5 °F 27.5 °F 29.98 in SW 7 mph 13 mph 85% 0.01 in 39.00 W/m2
16:35 31.2 °F 27.2 °F 29.98 in WSW 10 mph 13 mph 85% 0.01 in 33.00 W/m2
16:40 30.8 °F 26.8 °F 29.98 in WSW 8 mph 12 mph 85% 0.01 in 26.00 W/m2
16:45 30.5 °F 26.8 °F 29.98 in SW 8 mph 12 mph 86% 0.01 in 19.00 W/m2
16:50 30.6 °F 26.9 °F 29.98 in SW 8 mph 12 mph 86% 0.01 in 14.00 W/m2
16:55 30.4 °F 26.7 °F 29.98 in SW 9 mph 12 mph 86% 0.01 in 9.00 W/m2
17:00 30.2 °F 26.5 °F 29.98 in WSW 9 mph 12 mph 86% 0.01 in 5.00 W/m2
17:05 30.2 °F 26.8 °F 29.98 in WSW 8 mph 12 mph 87% 0.01 in 0.00 W/m2
17:10 29.9 °F 26.5 °F 29.98 in WSW 8 mph 12 mph 87% 0 in 0.00 W/m2
17:15 30.2 °F 26.8 °F 29.97 in WSW 8 mph 12 mph 87% 0 in 0.00 W/m2
17:20 30.1 °F 26.7 °F 29.97 in WSW 8 mph 11 mph 87% 0 in 0.00 W/m2
17:25 29.9 °F 26.5 °F 29.97 in West 7 mph 11 mph 87% 0 in 0.00 W/m2
17:30 29.8 °F 26.7 °F 29.97 in WSW 5 mph 11 mph 88% 0 in 0.00 W/m2
17:35 29.5 °F 26.1 °F 29.98 in West 4 mph 8 mph 87% 0 in 0.00 W/m2
17:40 29.9 °F 26.8 °F 29.98 in West 6 mph 8 mph 88% 0 in 0.00 W/m2
17:45 30.7 °F 27.3 °F 29.98 in WNW 8 mph 12 mph 87% 0 in 0.00 W/m2
17:50 31.3 °F 27.6 °F 29.98 in WNW 9 mph 12 mph 86% 0 in 0.00 W/m2
17:55 31.6 °F 27.9 °F 29.98 in West 8 mph 12 mph 86% 0 in 0.00 W/m2
18:00 31.2 °F 27.5 °F 29.97 in West 8 mph 12 mph 86% 0 in 0.00 W/m2
18:05 30.8 °F 27.1 °F 29.97 in West 7 mph 10 mph 86% 0 in 0.00 W/m2
18:10 30.5 °F 26.8 °F 29.98 in West 7 mph 10 mph 86% 0 in 0.00 W/m2
18:15 30.4 °F 26.7 °F 29.97 in West 8 mph 9 mph 86% 0 in 0.00 W/m2
18:20 30.5 °F 26.8 °F 29.97 in West 8 mph 11 mph 86% 0 in 0.00 W/m2
18:25 30.6 °F 26.9 °F 29.97 in West 10 mph 11 mph 86% 0 in 0.00 W/m2
18:30 31 °F 27.3 °F 29.97 in West 11 mph 13 mph 86% 0 in 0.00 W/m2
18:35 31.3 °F 27.3 °F 29.98 in WSW 9 mph 14 mph 85% 0 in 0.00 W/m2
18:40 31.3 °F 27.3 °F 29.98 in West 10 mph 14 mph 85% 0 in 0.00 W/m2
18:45 31.3 °F 27.3 °F 29.98 in West 10 mph 14 mph 85% 0 in 0.00 W/m2
18:50 31.5 °F 27.5 °F 29.98 in West 10 mph 14 mph 85% 0 in 0.00 W/m2
18:55 31.8 °F 27.8 °F 29.97 in West 10 mph 14 mph 85% 0 in 0.00 W/m2
19:00 32 °F 28 °F 29.97 in West 10 mph 14 mph 85% 0 in 0.00 W/m2
19:05 31.8 °F 27.8 °F 29.96 in WSW 10 mph 10 mph 85% 0 in 0.00 W/m2
19:10 30.9 °F 26.9 °F 29.96 in WSW 9 mph 14 mph 85% 0 in 0.00 W/m2
19:15 29.8 °F 25.8 °F 29.95 in WSW 11 mph 14 mph 85% 0 in 0.00 W/m2
19:20 29.5 °F 26.1 °F 29.95 in West 9 mph 11 mph 87% 0 in 0.00 W/m2
19:25 29.9 °F 26.2 °F 29.95 in WSW 10 mph 11 mph 86% 0 in 0.00 W/m2
19:30 29.1 °F 25.4 °F 29.95 in WSW 9 mph 11 mph 86% 0 in 0.00 W/m2
19:35 28.9 °F 25.5 °F 29.95 in West 10 mph 12 mph 87% 0 in 0.00 W/m2
19:40 30.8 °F 27.4 °F 29.96 in West 13 mph 16 mph 87% 0 in 0.00 W/m2
19:45 31.1 °F 27.1 °F 29.95 in WSW 11 mph 16 mph 85% 0 in 0.00 W/m2
19:50 30.4 °F 26.4 °F 29.94 in West 11 mph 16 mph 85% 0 in 0.00 W/m2
19:55 30.7 °F 27 °F 29.94 in West 10 mph 16 mph 86% 0 in 0.00 W/m2
20:00 31.2 °F 27.2 °F 29.94 in West 10 mph 16 mph 85% 0 in 0.00 W/m2
20:05 30.7 °F 26.7 °F 29.94 in West 12 mph 16 mph 85% 0 in 0.00 W/m2
20:10 30.6 °F 26.9 °F 29.93 in West 10 mph 16 mph 86% 0 in 0.00 W/m2
20:15 30.3 °F 26.3 °F 29.94 in WSW 11 mph 16 mph 85% 0 in 0.00 W/m2
20:20 28.6 °F 24.9 °F 29.94 in West 9 mph 14 mph 86% 0 in 0.00 W/m2
20:25 29.5 °F 26.4 °F 29.94 in West 11 mph 14 mph 88% 0 in 0.00 W/m2
20:30 31.2 °F 27.8 °F 29.93 in West 12 mph 15 mph 87% 0 in 0.00 W/m2
20:35 30.7 °F 26.7 °F 29.93 in WSW 11 mph 15 mph 85% 0 in 0.00 W/m2
20:40 30 °F 26.3 °F 29.93 in WSW 9 mph 15 mph 86% 0 in 0.00 W/m2
20:45 29.5 °F 25.8 °F 29.94 in WSW 11 mph 15 mph 86% 0 in 0.00 W/m2
20:50 29.1 °F 25.7 °F 29.94 in WSW 17 mph 17 mph 87% 0 in 0.00 W/m2
20:55 30.9 °F 27.5 °F 29.94 in WSW 11 mph 18 mph 87% 0 in 0.00 W/m2
21:00 31.4 °F 27.7 °F 29.94 in SW 9 mph 18 mph 86% 0 in 0.00 W/m2
21:05 31.3 °F 27.6 °F 29.94 in WSW 13 mph 18 mph 86% 0 in 0.00 W/m2
21:10 31.1 °F 27.1 °F 29.94 in WSW 12 mph 18 mph 85% 0 in 0.00 W/m2
21:15 31 °F 27.3 °F 29.94 in WSW 12 mph 16 mph 86% 0 in 0.00 W/m2
21:20 30.9 °F 27.2 °F 29.94 in WSW 9 mph 16 mph 86% 0 in 0.00 W/m2
21:25 30.6 °F 26.9 °F 29.94 in WSW 9 mph 16 mph 86% 0 in 0.00 W/m2
21:30 30.6 °F 26.9 °F 29.94 in WSW 12 mph 16 mph 86% 0 in 0.00 W/m2
21:35 31.1 °F 27.4 °F 29.94 in WSW 10 mph 13 mph 86% 0 in 0.00 W/m2
21:40 31 °F 27 °F 29.94 in WSW 12 mph 13 mph 85% 0 in 0.00 W/m2
21:45 31 °F 27 °F 29.94 in West 10 mph 13 mph 85% 0 in 0.00 W/m2
21:50 31 °F 27.3 °F 29.94 in WSW 9 mph 12 mph 86% 0 in 0.00 W/m2
21:55 31 °F 27 °F 29.94 in West 7 mph 11 mph 85% 0 in 0.00 W/m2
22:00 31 °F 27.3 °F 29.94 in West 8 mph 10 mph 86% 0 in 0.00 W/m2
22:05 31.2 °F 27.5 °F 29.93 in WSW 9 mph 10 mph 86% 0 in 0.00 W/m2
22:10 31 °F 27.3 °F 29.93 in WSW 8 mph 10 mph 86% 0 in 0.00 W/m2
22:15 30.7 °F 27 °F 29.93 in West 6 mph 10 mph 86% 0 in 0.00 W/m2
22:20 31 °F 27.6 °F 29.93 in WSW 7 mph 10 mph 87% 0 in 0.00 W/m2
22:25 31 °F 27.3 °F 29.93 in WNW 4 mph 10 mph 86% 0 in 0.00 W/m2
22:30 31.1 °F 27.7 °F 29.94 in WNW 4 mph 8 mph 87% 0 in 0.00 W/m2
22:35 31.1 °F 27.7 °F 29.93 in WNW 3 mph 8 mph 87% 0 in 0.00 W/m2
22:40 31 °F 27.6 °F 29.93 in WNW 5 mph 8 mph 87% 0 in 0.00 W/m2
22:45 31.1 °F 27.4 °F 29.93 in West 6 mph 8 mph 86% 0 in 0.00 W/m2
22:50 31.2 °F 27.5 °F 29.93 in West 7 mph 8 mph 86% 0 in 0.00 W/m2
22:55 31.7 °F 28 °F 29.93 in West 6 mph 9 mph 86% 0 in 0.00 W/m2
23:00 32.2 °F 28.2 °F 29.93 in West 7 mph 10 mph 85% 0 in 0.00 W/m2
23:05 32.4 °F 28.4 °F 29.93 in West 8 mph 10 mph 85% 0 in 0.00 W/m2
23:10 32.5 °F 28.2 °F 29.93 in West 8 mph 11 mph 84% 0 in 0.00 W/m2
23:15 32.6 °F 28.6 °F 29.93 in WSW 9 mph 11 mph 85% 0 in 0.00 W/m2
23:20 32.4 °F 28.4 °F 29.93 in WSW 9 mph 11 mph 85% 0 in 0.00 W/m2
23:25 32.3 °F 28.3 °F 29.92 in WSW 7 mph 11 mph 85% 0 in 0.00 W/m2
23:30 31.9 °F 28.2 °F 29.92 in SW 6 mph 10 mph 86% 0 in 0.00 W/m2
23:35 31.9 °F 28.2 °F 29.92 in WSW 8 mph 10 mph 86% 0 in 0.00 W/m2
23:40 31.8 °F 28.1 °F 29.92 in WSW 5 mph 9 mph 86% 0 in 0.00 W/m2
23:45 31.7 °F 28 °F 29.92 in WSW 7 mph 9 mph 86% 0 in 0.00 W/m2
23:50 31.8 °F 28.1 °F 29.92 in WSW 8 mph 9 mph 86% 0 in 0.00 W/m2
23:55 32.3 °F 28.6 °F 29.92 in WSW 8 mph 10 mph 86% 0 in 0.00 W/m2
Bismarck, North Dakota, USA
Compliments of Weather Underground - 4 mb